sensor_id;sensor_type;location;lat;lon;timestamp;pressure;altitude;pressure_sealevel;temperature;humidity
69772;BME280;57046;45.988;18.664;2023-03-26T00:00:22;100393.38;;;8.96;93.94
69772;BME280;57046;45.988;18.664;2023-03-26T00:02:47;100403.19;;;8.92;94.04
69772;BME280;57046;45.988;18.664;2023-03-26T00:05:13;100400.75;;;8.82;93.29
69772;BME280;57046;45.988;18.664;2023-03-26T00:07:38;100403.63;;;8.85;93.10
69772;BME280;57046;45.988;18.664;2023-03-26T00:10:04;100404.03;;;8.70;94.55
69772;BME280;57046;45.988;18.664;2023-03-26T00:12:29;100396.75;;;8.71;93.72
69772;BME280;57046;45.988;18.664;2023-03-26T00:14:54;100399.63;;;8.74;94.40
69772;BME280;57046;45.988;18.664;2023-03-26T00:17:20;100405.50;;;8.76;93.75
69772;BME280;57046;45.988;18.664;2023-03-26T00:19:45;100390.41;;;8.75;93.69
69772;BME280;57046;45.988;18.664;2023-03-26T00:22:10;100399.47;;;8.79;93.31
69772;BME280;57046;45.988;18.664;2023-03-26T00:24:36;100389.63;;;8.75;93.76
69772;BME280;57046;45.988;18.664;2023-03-26T00:27:01;100383.88;;;8.67;93.89
69772;BME280;57046;45.988;18.664;2023-03-26T00:29:27;100389.59;;;8.66;93.37
69772;BME280;57046;45.988;18.664;2023-03-26T00:31:52;100389.59;;;8.66;93.50
69772;BME280;57046;45.988;18.664;2023-03-26T00:34:17;100391.19;;;8.67;92.07
69772;BME280;57046;45.988;18.664;2023-03-26T00:36:43;100380.00;;;8.51;92.99
69772;BME280;57046;45.988;18.664;2023-03-26T00:39:08;100382.44;;;8.61;92.39
69772;BME280;57046;45.988;18.664;2023-03-26T00:41:34;100390.31;;;8.58;91.72
69772;BME280;57046;45.988;18.664;2023-03-26T00:43:59;100387.28;;;8.51;90.88
69772;BME280;57046;45.988;18.664;2023-03-26T00:46:26;100376.75;;;8.41;91.08
69772;BME280;57046;45.988;18.664;2023-03-26T00:48:52;100380.00;;;8.29;90.77
69772;BME280;57046;45.988;18.664;2023-03-26T00:51:19;100388.13;;;8.15;90.81
69772;BME280;57046;45.988;18.664;2023-03-26T00:53:46;100379.91;;;8.20;89.22
69772;BME280;57046;45.988;18.664;2023-03-26T00:56:13;100376.22;;;8.16;89.25
69772;BME280;57046;45.988;18.664;2023-03-26T00:58:38;100374.28;;;8.08;88.54
69772;BME280;57046;45.988;18.664;2023-03-26T01:01:07;100371.47;;;8.13;87.56
69772;BME280;57046;45.988;18.664;2023-03-26T01:03:34;100375.69;;;8.06;87.90
69772;BME280;57046;45.988;18.664;2023-03-26T01:06:02;100373.69;;;8.11;87.44
69772;BME280;57046;45.988;18.664;2023-03-26T01:08:45;100339.69;;;7.80;88.43
69772;BME280;57046;45.988;18.664;2023-03-26T01:11:16;100371.75;;;7.90;88.38
69772;BME280;57046;45.988;18.664;2023-03-26T01:13:54;100380.44;;;7.87;88.14
69772;BME280;57046;45.988;18.664;2023-03-26T01:16:34;100347.13;;;7.60;88.18
69772;BME280;57046;45.988;18.664;2023-03-26T01:19:00;100380.25;;;7.83;87.94
69772;BME280;57046;45.988;18.664;2023-03-26T01:21:27;100377.78;;;7.73;88.44
69772;BME280;57046;45.988;18.664;2023-03-26T01:24:02;100378.91;;;7.72;89.08
69772;BME280;57046;45.988;18.664;2023-03-26T01:26:39;100351.94;;;7.50;88.91
69772;BME280;57046;45.988;18.664;2023-03-26T01:29:20;100397.53;;;7.68;87.73
69772;BME280;57046;45.988;18.664;2023-03-26T01:31:58;100379.13;;;7.62;88.82
69772;BME280;57046;45.988;18.664;2023-03-26T01:34:40;100375.34;;;7.49;89.17
69772;BME280;57046;45.988;18.664;2023-03-26T01:37:20;100347.88;;;7.25;89.32
69772;BME280;57046;45.988;18.664;2023-03-26T01:39:56;100335.66;;;7.19;89.57
69772;BME280;57046;45.988;18.664;2023-03-26T01:42:36;100361.50;;;7.42;89.50
69772;BME280;57046;45.988;18.664;2023-03-26T01:45:23;100348.38;;;7.41;89.44
69772;BME280;57046;45.988;18.664;2023-03-26T01:47:51;100355.31;;;7.42;89.18
69772;BME280;57046;45.988;18.664;2023-03-26T01:50:17;100351.28;;;7.31;89.45
69772;BME280;57046;45.988;18.664;2023-03-26T01:52:42;100349.69;;;7.30;90.11
69772;BME280;57046;45.988;18.664;2023-03-26T01:55:08;100341.41;;;7.26;89.57
69772;BME280;57046;45.988;18.664;2023-03-26T02:01:01;100337.34;;;7.15;91.20
69772;BME280;57046;45.988;18.664;2023-03-26T02:03:34;100324.50;;;6.98;91.17
69772;BME280;57046;45.988;18.664;2023-03-26T02:06:24;100347.19;;;6.79;91.79
69772;BME280;57046;45.988;18.664;2023-03-26T02:09:00;100344.00;;;6.63;91.82
69772;BME280;57046;45.988;18.664;2023-03-26T02:11:26;100348.38;;;6.73;91.31
69772;BME280;57046;45.988;18.664;2023-03-26T02:13:52;100335.75;;;6.59;90.51
69772;BME280;57046;45.988;18.664;2023-03-26T02:16:18;100370.16;;;6.71;90.24
69772;BME280;57046;45.988;18.664;2023-03-26T02:18:46;100373.75;;;6.80;89.69
69772;BME280;57046;45.988;18.664;2023-03-26T02:21:14;100378.63;;;6.78;90.95
69772;BME280;57046;45.988;18.664;2023-03-26T02:23:42;100373.63;;;6.72;91.93
69772;BME280;57046;45.988;18.664;2023-03-26T02:26:09;100380.88;;;6.71;91.89
69772;BME280;57046;45.988;18.664;2023-03-26T02:28:35;100370.66;;;6.73;90.78
69772;BME280;57046;45.988;18.664;2023-03-26T02:31:00;100371.44;;;6.74;91.38
69772;BME280;57046;45.988;18.664;2023-03-26T02:33:28;100373.16;;;6.70;90.88
69772;BME280;57046;45.988;18.664;2023-03-26T02:35:54;100374.50;;;6.67;90.77
69772;BME280;57046;45.988;18.664;2023-03-26T02:38:19;100367.06;;;6.64;90.36
69772;BME280;57046;45.988;18.664;2023-03-26T02:40:45;100366.25;;;6.63;90.03
69772;BME280;57046;45.988;18.664;2023-03-26T02:43:10;100363.66;;;6.58;89.80
69772;BME280;57046;45.988;18.664;2023-03-26T02:45:35;100364.66;;;6.49;91.99
69772;BME280;57046;45.988;18.664;2023-03-26T02:48:01;100367.81;;;6.51;91.75
69772;BME280;57046;45.988;18.664;2023-03-26T02:50:26;100366.41;;;6.40;92.73
69772;BME280;57046;45.988;18.664;2023-03-26T02:52:51;100363.38;;;6.46;92.63
69772;BME280;57046;45.988;18.664;2023-03-26T02:55:17;100361.00;;;6.26;95.31
69772;BME280;57046;45.988;18.664;2023-03-26T02:57:42;100350.03;;;6.23;96.24
69772;BME280;57046;45.988;18.664;2023-03-26T03:00:08;100333.75;;;6.19;95.39
69772;BME280;57046;45.988;18.664;2023-03-26T03:02:33;100358.03;;;6.28;94.93
69772;BME280;57046;45.988;18.664;2023-03-26T03:04:58;100357.75;;;6.29;94.71
69772;BME280;57046;45.988;18.664;2023-03-26T03:07:24;100365.69;;;6.34;94.49
69772;BME280;57046;45.988;18.664;2023-03-26T03:09:49;100335.13;;;6.17;94.38
69772;BME280;57046;45.988;18.664;2023-03-26T03:12:14;100359.84;;;6.32;93.41
69772;BME280;57046;45.988;18.664;2023-03-26T03:14:40;100369.56;;;6.28;92.36
69772;BME280;57046;45.988;18.664;2023-03-26T03:17:05;100380.88;;;6.25;92.39
69772;BME280;57046;45.988;18.664;2023-03-26T03:19:30;100371.34;;;6.00;92.75
69772;BME280;57046;45.988;18.664;2023-03-26T03:21:56;100370.69;;;6.08;92.29
69772;BME280;57046;45.988;18.664;2023-03-26T03:24:21;100371.56;;;6.04;96.66
69772;BME280;57046;45.988;18.664;2023-03-26T03:26:46;100367.41;;;6.11;96.04
69772;BME280;57046;45.988;18.664;2023-03-26T03:29:12;100354.38;;;6.05;96.08
69772;BME280;57046;45.988;18.664;2023-03-26T03:31:37;100363.84;;;6.16;95.93
69772;BME280;57046;45.988;18.664;2023-03-26T03:34:03;100372.09;;;6.20;95.57
69772;BME280;57046;45.988;18.664;2023-03-26T03:36:28;100374.56;;;6.16;94.30
69772;BME280;57046;45.988;18.664;2023-03-26T03:38:53;100374.78;;;6.20;93.71
69772;BME280;57046;45.988;18.664;2023-03-26T03:41:19;100373.91;;;6.24;93.62
69772;BME280;57046;45.988;18.664;2023-03-26T03:43:44;100376.47;;;6.16;93.14
69772;BME280;57046;45.988;18.664;2023-03-26T03:46:10;100388.72;;;6.22;92.03
69772;BME280;57046;45.988;18.664;2023-03-26T03:48:35;100387.75;;;6.12;92.76
69772;BME280;57046;45.988;18.664;2023-03-26T03:51:00;100404.38;;;6.14;92.94
69772;BME280;57046;45.988;18.664;2023-03-26T03:53:26;100396.91;;;6.11;95.42
69772;BME280;57046;45.988;18.664;2023-03-26T03:55:53;100359.97;;;5.90;95.05
69772;BME280;57046;45.988;18.664;2023-03-26T03:58:23;100395.47;;;6.00;99.44
69772;BME280;57046;45.988;18.664;2023-03-26T04:00:51;100385.44;;;6.06;99.79
69772;BME280;57046;45.988;18.664;2023-03-26T04:03:17;100396.97;;;6.06;100.00
69772;BME280;57046;45.988;18.664;2023-03-26T04:05:44;100397.88;;;6.02;100.00
69772;BME280;57046;45.988;18.664;2023-03-26T04:08:09;100384.69;;;6.05;100.00
69772;BME280;57046;45.988;18.664;2023-03-26T04:10:34;100390.22;;;6.09;100.00
69772;BME280;57046;45.988;18.664;2023-03-26T04:13:00;100380.66;;;6.22;100.00
69772;BME280;57046;45.988;18.664;2023-03-26T04:15:25;100379.66;;;6.18;100.00
69772;BME280;57046;45.988;18.664;2023-03-26T04:17:51;100395.59;;;6.28;100.00
69772;BME280;57046;45.988;18.664;2023-03-26T04:20:16;100401.22;;;6.45;100.00
69772;BME280;57046;45.988;18.664;2023-03-26T04:22:42;100396.66;;;6.45;100.00
69772;BME280;57046;45.988;18.664;2023-03-26T04:25:09;100390.84;;;6.38;100.00
69772;BME280;57046;45.988;18.664;2023-03-26T04:27:35;100401.22;;;6.45;100.00
69772;BME280;57046;45.988;18.664;2023-03-26T04:30:02;100406.38;;;6.41;100.00
69772;BME280;57046;45.988;18.664;2023-03-26T04:32:29;100383.31;;;6.40;100.00
69772;BME280;57046;45.988;18.664;2023-03-26T04:34:57;100403.31;;;6.48;100.00
69772;BME280;57046;45.988;18.664;2023-03-26T04:37:32;100399.22;;;6.50;100.00
69772;BME280;57046;45.988;18.664;2023-03-26T04:39:59;100408.25;;;6.41;100.00
69772;BME280;57046;45.988;18.664;2023-03-26T04:42:24;100420.25;;;6.11;100.00
69772;BME280;57046;45.988;18.664;2023-03-26T04:44:49;100416.97;;;5.95;100.00
69772;BME280;57046;45.988;18.664;2023-03-26T04:47:18;100411.59;;;5.77;100.00
69772;BME280;57046;45.988;18.664;2023-03-26T04:49:44;100418.56;;;5.78;100.00
69772;BME280;57046;45.988;18.664;2023-03-26T04:52:11;100395.28;;;5.73;98.78
69772;BME280;57046;45.988;18.664;2023-03-26T04:54:37;100410.41;;;5.88;98.16
69772;BME280;57046;45.988;18.664;2023-03-26T04:57:06;100413.53;;;5.95;97.59
69772;BME280;57046;45.988;18.664;2023-03-26T04:59:35;100402.81;;;5.95;97.19
69772;BME280;57046;45.988;18.664;2023-03-26T05:02:02;100400.34;;;5.98;98.34
69772;BME280;57046;45.988;18.664;2023-03-26T05:04:28;100402.06;;;6.08;99.16
69772;BME280;57046;45.988;18.664;2023-03-26T05:06:53;100403.25;;;6.02;100.00
69772;BME280;57046;45.988;18.664;2023-03-26T05:09:19;100405.47;;;5.95;100.00
69772;BME280;57046;45.988;18.664;2023-03-26T05:11:44;100415.13;;;5.72;100.00
69772;BME280;57046;45.988;18.664;2023-03-26T05:14:09;100423.50;;;5.47;100.00
69772;BME280;57046;45.988;18.664;2023-03-26T05:16:35;100421.34;;;5.49;100.00
69772;BME280;57046;45.988;18.664;2023-03-26T05:19:00;100423.56;;;5.42;100.00
69772;BME280;57046;45.988;18.664;2023-03-26T05:21:26;100421.91;;;5.46;100.00
69772;BME280;57046;45.988;18.664;2023-03-26T05:23:51;100418.59;;;5.54;100.00
69772;BME280;57046;45.988;18.664;2023-03-26T05:26:17;100421.59;;;5.71;100.00
69772;BME280;57046;45.988;18.664;2023-03-26T05:28:43;100418.78;;;5.81;100.00
69772;BME280;57046;45.988;18.664;2023-03-26T05:31:09;100412.03;;;5.84;100.00
69772;BME280;57046;45.988;18.664;2023-03-26T05:33:34;100416.31;;;5.85;100.00
69772;BME280;57046;45.988;18.664;2023-03-26T05:36:08;100433.91;;;5.72;100.00
69772;BME280;57046;45.988;18.664;2023-03-26T05:38:35;100422.19;;;5.68;100.00
69772;BME280;57046;45.988;18.664;2023-03-26T05:41:03;100417.81;;;5.53;100.00
69772;BME280;57046;45.988;18.664;2023-03-26T05:43:29;100420.72;;;5.76;100.00
69772;BME280;57046;45.988;18.664;2023-03-26T05:45:55;100404.94;;;5.74;100.00
69772;BME280;57046;45.988;18.664;2023-03-26T05:48:20;100366.72;;;5.45;100.00
69772;BME280;57046;45.988;18.664;2023-03-26T05:50:50;100397.34;;;5.81;100.00
69772;BME280;57046;45.988;18.664;2023-03-26T05:53:16;100398.31;;;5.85;100.00
69772;BME280;57046;45.988;18.664;2023-03-26T05:55:43;100402.13;;;5.84;100.00
69772;BME280;57046;45.988;18.664;2023-03-26T05:58:08;100405.53;;;5.90;100.00
69772;BME280;57046;45.988;18.664;2023-03-26T06:00:34;100405.41;;;6.00;100.00
69772;BME280;57046;45.988;18.664;2023-03-26T06:02:59;100409.59;;;6.06;100.00
69772;BME280;57046;45.988;18.664;2023-03-26T06:05:24;100403.31;;;6.16;100.00
69772;BME280;57046;45.988;18.664;2023-03-26T06:07:50;100405.53;;;6.27;100.00
69772;BME280;57046;45.988;18.664;2023-03-26T06:10:15;100407.34;;;6.32;100.00
69772;BME280;57046;45.988;18.664;2023-03-26T06:12:40;100406.38;;;6.41;100.00
69772;BME280;57046;45.988;18.664;2023-03-26T06:15:06;100406.13;;;6.56;100.00
69772;BME280;57046;45.988;18.664;2023-03-26T06:17:32;100406.72;;;6.67;100.00
69772;BME280;57046;45.988;18.664;2023-03-26T06:19:57;100409.16;;;6.82;100.00
69772;BME280;57046;45.988;18.664;2023-03-26T06:22:22;100416.25;;;6.92;100.00
69772;BME280;57046;45.988;18.664;2023-03-26T06:24:48;100419.47;;;7.07;100.00
69772;BME280;57046;45.988;18.664;2023-03-26T06:27:13;100411.78;;;7.14;100.00
69772;BME280;57046;45.988;18.664;2023-03-26T06:29:38;100409.88;;;7.29;100.00
69772;BME280;57046;45.988;18.664;2023-03-26T06:32:04;100400.72;;;7.43;100.00
69772;BME280;57046;45.988;18.664;2023-03-26T06:34:29;100397.34;;;7.51;100.00
69772;BME280;57046;45.988;18.664;2023-03-26T06:36:55;100396.53;;;7.64;100.00
69772;BME280;57046;45.988;18.664;2023-03-26T06:39:20;100396.13;;;7.71;100.00
69772;BME280;57046;45.988;18.664;2023-03-26T06:41:46;100388.31;;;7.83;100.00
69772;BME280;57046;45.988;18.664;2023-03-26T06:44:11;100399.66;;;7.94;100.00
69772;BME280;57046;45.988;18.664;2023-03-26T06:46:37;100395.13;;;8.03;100.00
69772;BME280;57046;45.988;18.664;2023-03-26T06:49:02;100390.81;;;8.15;100.00
69772;BME280;57046;45.988;18.664;2023-03-26T06:51:28;100386.09;;;8.21;100.00
69772;BME280;57046;45.988;18.664;2023-03-26T06:53:53;100378.59;;;8.32;100.00
69772;BME280;57046;45.988;18.664;2023-03-26T06:56:18;100382.31;;;8.44;100.00
69772;BME280;57046;45.988;18.664;2023-03-26T06:58:44;100376.19;;;8.52;100.00
69772;BME280;57046;45.988;18.664;2023-03-26T07:01:09;100370.56;;;8.62;100.00
69772;BME280;57046;45.988;18.664;2023-03-26T07:03:35;100366.44;;;8.65;100.00
69772;BME280;57046;45.988;18.664;2023-03-26T07:06:00;100368.06;;;8.75;100.00
69772;BME280;57046;45.988;18.664;2023-03-26T07:08:25;100374.66;;;8.91;100.00
69772;BME280;57046;45.988;18.664;2023-03-26T07:10:51;100371.53;;;8.97;100.00
69772;BME280;57046;45.988;18.664;2023-03-26T07:13:16;100377.91;;;9.10;100.00
69772;BME280;57046;45.988;18.664;2023-03-26T07:15:41;100374.31;;;9.23;100.00
69772;BME280;57046;45.988;18.664;2023-03-26T07:18:07;100372.91;;;9.34;100.00
69772;BME280;57046;45.988;18.664;2023-03-26T07:20:32;100369.94;;;9.53;100.00
69772;BME280;57046;45.988;18.664;2023-03-26T07:22:58;100369.16;;;9.61;100.00
69772;BME280;57046;45.988;18.664;2023-03-26T07:25:24;100367.25;;;9.70;100.00
69772;BME280;57046;45.988;18.664;2023-03-26T07:28:11;100367.59;;;9.86;100.00
69772;BME280;57046;45.988;18.664;2023-03-26T07:33:19;100361.88;;;10.04;100.00
69772;BME280;57046;45.988;18.664;2023-03-26T07:36:11;100356.19;;;10.14;100.00
69772;BME280;57046;45.988;18.664;2023-03-26T07:41:38;100359.97;;;10.39;100.00
69772;BME280;57046;45.988;18.664;2023-03-26T07:46:47;100356.72;;;10.63;100.00
69772;BME280;57046;45.988;18.664;2023-03-26T07:49:13;100355.59;;;10.72;100.00
69772;BME280;57046;45.988;18.664;2023-03-26T07:51:40;100352.22;;;10.84;100.00
69772;BME280;57046;45.988;18.664;2023-03-26T07:54:07;100339.72;;;11.09;100.00
69772;BME280;57046;45.988;18.664;2023-03-26T07:59:10;100336.03;;;11.84;95.16
69772;BME280;57046;45.988;18.664;2023-03-26T08:02:13;100356.31;;;11.99;90.70
69772;BME280;57046;45.988;18.664;2023-03-26T08:10:21;100337.22;;;12.61;87.62
69772;BME280;57046;45.988;18.664;2023-03-26T08:17:58;100312.28;;;13.04;81.90
69772;BME280;57046;45.988;18.664;2023-03-26T08:20:41;100321.47;;;13.23;77.11
69772;BME280;57046;45.988;18.664;2023-03-26T08:29:17;100305.66;;;13.65;77.92
69772;BME280;57046;45.988;18.664;2023-03-26T08:31:47;100300.84;;;13.87;78.85
69772;BME280;57046;45.988;18.664;2023-03-26T08:34:13;100302.47;;;14.03;78.08
69772;BME280;57046;45.988;18.664;2023-03-26T08:36:39;100290.31;;;14.13;75.82
69772;BME280;57046;45.988;18.664;2023-03-26T08:39:05;100314.25;;;14.35;74.85
69772;BME280;57046;45.988;18.664;2023-03-26T08:48:03;100304.72;;;14.88;69.92
69772;BME280;57046;45.988;18.664;2023-03-26T08:53:51;100293.25;;;15.14;72.18
69772;BME280;57046;45.988;18.664;2023-03-26T08:57:18;100291.31;;;15.14;68.87
69772;BME280;57046;45.988;18.664;2023-03-26T09:05:19;100294.09;;;15.49;66.83
69772;BME280;57046;45.988;18.664;2023-03-26T09:30:16;100257.72;;;16.64;56.01
69772;BME280;57046;45.988;18.664;2023-03-26T09:36:29;100248.91;;;16.74;54.61
69772;BME280;57046;45.988;18.664;2023-03-26T09:39:08;100261.91;;;16.81;53.32
69772;BME280;57046;45.988;18.664;2023-03-26T09:44:19;100234.66;;;17.10;52.23
69772;BME280;57046;45.988;18.664;2023-03-26T09:49:28;100236.00;;;17.23;51.41
69772;BME280;57046;45.988;18.664;2023-03-26T10:11:30;100176.84;;;18.05;47.23
69772;BME280;57046;45.988;18.664;2023-03-26T10:27:42;100152.38;;;18.73;47.43
69772;BME280;57046;45.988;18.664;2023-03-26T10:40:46;100113.16;;;18.55;46.13
69772;BME280;57046;45.988;18.664;2023-03-26T10:43:31;100123.47;;;18.79;46.84
69772;BME280;57046;45.988;18.664;2023-03-26T10:51:57;100105.69;;;19.24;42.88
69772;BME280;57046;45.988;18.664;2023-03-26T10:57:22;100104.97;;;19.42;41.94
69772;BME280;57046;45.988;18.664;2023-03-26T10:59:54;100089.72;;;19.51;41.91
69772;BME280;57046;45.988;18.664;2023-03-26T11:05:18;100084.88;;;19.16;39.78
69772;BME280;57046;45.988;18.664;2023-03-26T11:07:48;100089.25;;;19.31;40.74
69772;BME280;57046;45.988;18.664;2023-03-26T11:10:46;100064.97;;;19.26;39.56
69772;BME280;57046;45.988;18.664;2023-03-26T11:13:45;100082.59;;;19.36;39.97
69772;BME280;57046;45.988;18.664;2023-03-26T11:19:23;100073.84;;;18.85;39.58
69772;BME280;57046;45.988;18.664;2023-03-26T11:24:47;100064.34;;;18.71;40.75
69772;BME280;57046;45.988;18.664;2023-03-26T11:32:49;100058.28;;;18.38;42.77
69772;BME280;57046;45.988;18.664;2023-03-26T11:35:37;100041.00;;;18.19;44.38
69772;BME280;57046;45.988;18.664;2023-03-26T11:38:45;100039.31;;;18.04;43.78
69772;BME280;57046;45.988;18.664;2023-03-26T11:41:14;100025.94;;;17.92;44.90
69772;BME280;57046;45.988;18.664;2023-03-26T11:43:40;100030.03;;;18.16;46.10
69772;BME280;57046;45.988;18.664;2023-03-26T11:46:11;100019.00;;;18.05;46.84
69772;BME280;57046;45.988;18.664;2023-03-26T11:51:19;100013.03;;;17.89;44.69
69772;BME280;57046;45.988;18.664;2023-03-26T11:53:47;100006.41;;;17.90;46.67
69772;BME280;57046;45.988;18.664;2023-03-26T11:59:00;99996.00;;;18.10;44.03
69772;BME280;57046;45.988;18.664;2023-03-26T12:01:39;99993.25;;;18.10;43.25
69772;BME280;57046;45.988;18.664;2023-03-26T12:04:16;99983.81;;;18.04;42.50
69772;BME280;57046;45.988;18.664;2023-03-26T12:06:56;99991.31;;;18.14;42.55
69772;BME280;57046;45.988;18.664;2023-03-26T12:09:23;99986.66;;;18.18;41.55
69772;BME280;57046;45.988;18.664;2023-03-26T12:11:52;99982.00;;;18.22;42.90
69772;BME280;57046;45.988;18.664;2023-03-26T12:14:24;99973.81;;;18.25;44.55
69772;BME280;57046;45.988;18.664;2023-03-26T12:17:06;99957.72;;;18.17;43.31
69772;BME280;57046;45.988;18.664;2023-03-26T12:19:38;99955.00;;;18.17;41.52
69772;BME280;57046;45.988;18.664;2023-03-26T12:22:04;99940.16;;;18.21;40.88
69772;BME280;57046;45.988;18.664;2023-03-26T12:24:31;99942.38;;;18.74;41.05
69772;BME280;57046;45.988;18.664;2023-03-26T12:27:00;99925.59;;;19.11;39.73
69772;BME280;57046;45.988;18.664;2023-03-26T12:29:26;99917.81;;;19.41;39.50
69772;BME280;57046;45.988;18.664;2023-03-26T12:32:07;99904.09;;;19.55;38.54
69772;BME280;57046;45.988;18.664;2023-03-26T12:34:38;99921.69;;;19.79;36.39
69772;BME280;57046;45.988;18.664;2023-03-26T12:37:06;99915.84;;;19.56;35.58
69772;BME280;57046;45.988;18.664;2023-03-26T12:39:40;99883.72;;;19.14;35.40
69772;BME280;57046;45.988;18.664;2023-03-26T12:42:24;99907.63;;;19.42;33.79
69772;BME280;57046;45.988;18.664;2023-03-26T12:44:51;99899.78;;;19.47;33.74
69772;BME280;57046;45.988;18.664;2023-03-26T12:47:22;99893.94;;;19.49;34.43
69772;BME280;57046;45.988;18.664;2023-03-26T12:49:50;99884.91;;;19.34;35.56
69772;BME280;57046;45.988;18.664;2023-03-26T12:52:38;99881.78;;;19.39;35.55
69772;BME280;57046;45.988;18.664;2023-03-26T12:55:47;99872.34;;;19.40;35.36
69772;BME280;57046;45.988;18.664;2023-03-26T13:06:44;99860.97;;;19.73;36.51
69772;BME280;57046;45.988;18.664;2023-03-26T13:14:44;99834.25;;;19.95;33.51
69772;BME280;57046;45.988;18.664;2023-03-26T13:17:31;99837.00;;;19.92;32.99
69772;BME280;57046;45.988;18.664;2023-03-26T13:20:03;99820.88;;;20.04;32.95
69772;BME280;57046;45.988;18.664;2023-03-26T13:25:53;99808.81;;;19.88;31.90
69772;BME280;57046;45.988;18.664;2023-03-26T13:28:58;99806.91;;;19.70;32.10
69772;BME280;57046;45.988;18.664;2023-03-26T13:31:41;99805.72;;;19.78;33.79
69772;BME280;57046;45.988;18.664;2023-03-26T13:36:46;99786.91;;;19.77;35.20
69772;BME280;57046;45.988;18.664;2023-03-26T13:39:26;99787.31;;;19.79;34.82
69772;BME280;57046;45.988;18.664;2023-03-26T13:44:39;99764.84;;;20.02;33.25
69772;BME280;57046;45.988;18.664;2023-03-26T13:47:13;99762.84;;;20.13;32.04
69772;BME280;57046;45.988;18.664;2023-03-26T13:49:43;99748.72;;;20.14;31.79
69772;BME280;57046;45.988;18.664;2023-03-26T13:52:16;99760.44;;;20.22;31.56
69772;BME280;57046;45.988;18.664;2023-03-26T13:55:28;99750.53;;;20.39;31.45
69772;BME280;57046;45.988;18.664;2023-03-26T13:58:26;99744.13;;;20.56;31.52
69772;BME280;57046;45.988;18.664;2023-03-26T14:01:06;99747.97;;;20.65;31.54
69772;BME280;57046;45.988;18.664;2023-03-26T14:03:57;99740.50;;;20.69;31.20
69772;BME280;57046;45.988;18.664;2023-03-26T14:06:44;99744.31;;;20.79;30.99
69772;BME280;57046;45.988;18.664;2023-03-26T14:14:32;99720.59;;;20.99;30.04
69772;BME280;57046;45.988;18.664;2023-03-26T14:20:19;99713.44;;;21.09;30.52
69772;BME280;57046;45.988;18.664;2023-03-26T14:31:19;99694.59;;;20.70;29.43
69772;BME280;57046;45.988;18.664;2023-03-26T14:47:13;99649.41;;;20.78;29.37
69772;BME280;57046;45.988;18.664;2023-03-26T14:54:55;99631.72;;;20.38;30.08
69772;BME280;57046;45.988;18.664;2023-03-26T15:03:04;99621.53;;;20.39;32.86
69772;BME280;57046;45.988;18.664;2023-03-26T15:11:17;99609.63;;;20.08;32.27
69772;BME280;57046;45.988;18.664;2023-03-26T15:19:39;99592.38;;;19.56;33.57
69772;BME280;57046;45.988;18.664;2023-03-26T15:33:58;99575.53;;;19.54;33.79
69772;BME280;57046;45.988;18.664;2023-03-26T15:41:33;99570.16;;;19.29;35.38
69772;BME280;57046;45.988;18.664;2023-03-26T15:46:55;99559.28;;;19.18;34.96
69772;BME280;57046;45.988;18.664;2023-03-26T16:05:56;99534.72;;;19.04;37.48
69772;BME280;57046;45.988;18.664;2023-03-26T16:08:47;99524.59;;;18.94;37.49
69772;BME280;57046;45.988;18.664;2023-03-26T16:15:14;99512.97;;;18.62;37.78
69772;BME280;57046;45.988;18.664;2023-03-26T16:21:22;99498.16;;;18.45;38.33
69772;BME280;57046;45.988;18.664;2023-03-26T16:26:10;99493.09;;;18.40;38.47
69772;BME280;57046;45.988;18.664;2023-03-26T16:41:29;99480.72;;;17.61;40.23
69772;BME280;57046;45.988;18.664;2023-03-26T16:55:27;99485.34;;;17.29;41.34
69772;BME280;57046;45.988;18.664;2023-03-26T17:03:53;99481.84;;;17.18;41.99
69772;BME280;57046;45.988;18.664;2023-03-26T17:17:31;99457.97;;;16.76;41.83
69772;BME280;57046;45.988;18.664;2023-03-26T17:22:49;99475.88;;;16.73;41.38
69772;BME280;57046;45.988;18.664;2023-03-26T17:25:36;99472.75;;;16.75;41.42
69772;BME280;57046;45.988;18.664;2023-03-26T17:30:48;99476.19;;;16.58;40.85
69772;BME280;57046;45.988;18.664;2023-03-26T17:35:50;99464.06;;;16.52;40.63
69772;BME280;57046;45.988;18.664;2023-03-26T17:41:02;99469.19;;;16.64;40.37
69772;BME280;57046;45.988;18.664;2023-03-26T17:43:50;99470.78;;;16.65;39.57
69772;BME280;57046;45.988;18.664;2023-03-26T17:51:55;99458.28;;;16.60;39.37
69772;BME280;57046;45.988;18.664;2023-03-26T17:54:41;99451.28;;;16.59;39.87
69772;BME280;57046;45.988;18.664;2023-03-26T17:57:28;99451.28;;;16.56;39.40
69772;BME280;57046;45.988;18.664;2023-03-26T17:59:58;99448.88;;;16.54;39.72
69772;BME280;57046;45.988;18.664;2023-03-26T18:02:40;99443.09;;;16.56;39.66
69772;BME280;57046;45.988;18.664;2023-03-26T18:05:11;99432.88;;;16.42;39.91
69772;BME280;57046;45.988;18.664;2023-03-26T18:08:11;99411.72;;;16.18;39.98
69772;BME280;57046;45.988;18.664;2023-03-26T18:18:56;99413.31;;;16.22;40.51
69772;BME280;57046;45.988;18.664;2023-03-26T18:21:37;99421.50;;;16.22;40.37
69772;BME280;57046;45.988;18.664;2023-03-26T18:24:05;99419.53;;;16.23;40.54
69772;BME280;57046;45.988;18.664;2023-03-26T18:26:44;99404.75;;;16.24;40.01
69772;BME280;57046;45.988;18.664;2023-03-26T18:29:17;99414.84;;;16.16;40.65
69772;BME280;57046;45.988;18.664;2023-03-26T18:31:45;99402.44;;;16.33;40.51
69772;BME280;57046;45.988;18.664;2023-03-26T18:34:15;99341.13;;;15.88;41.15
69772;BME280;57046;45.988;18.664;2023-03-26T18:39:32;99391.13;;;16.24;40.68
69772;BME280;57046;45.988;18.664;2023-03-26T18:41:58;99393.81;;;16.20;40.46